Time;durP1;ratioP1;P1;durP2;ratioP2;P2;SDS_P1;SDS_P2;PMS_P1;PMS_P2;Temp;Humidity;BMP_temperature;BMP_pressure;BME280_temperature;BME280_humidity;BME280_pressure;Samples;Min_cycle;Max_cycle;Signal;HPM_P1;HPM_P2
2021/05/12 00:00:55;;;;;;;2.00;1.55;;;;;;;14.05;51.67;98946.58;1715056;83;21553;-68
2021/05/12 00:03:21;;;;;;;3.98;1.50;;;;;;;13.97;52.02;98944.11;1709429;83;20910;-68
2021/05/12 00:05:47;;;;;;;1.85;1.57;;;;;;;13.87;52.36;98947.70;1708906;83;21047;-67
2021/05/12 00:08:13;;;;;;;2.47;1.70;;;;;;;13.80;52.68;98943.66;1700857;83;20929;-67
2021/05/12 00:10:39;;;;;;;3.50;1.40;;;;;;;13.76;52.85;98948.30;1711956;83;20918;-67
2021/05/12 00:13:05;;;;;;;2.87;1.50;;;;;;;13.74;52.89;98938.32;1714902;83;21074;-67
2021/05/12 00:15:32;;;;;;;2.92;1.98;;;;;;;13.73;52.90;98940.67;1707891;83;21016;-67
2021/05/12 00:17:58;;;;;;;1.67;1.40;;;;;;;13.75;53.00;98941.28;1709502;83;21087;-67
2021/05/12 00:20:27;;;;;;;5.25;2.00;;;;;;;13.73;52.99;98938.00;1690199;83;20976;-68
2021/05/12 00:25:18;;;;;;;4.75;1.70;;;;;;;13.72;53.05;98942.52;1697021;83;20943;-68
2021/05/12 00:27:44;;;;;;;3.37;1.90;;;;;;;13.69;53.11;98938.91;1707963;83;20973;-68
2021/05/12 00:30:14;;;;;;;4.03;1.92;;;;;;;13.68;53.32;98941.80;1693858;83;21179;-67
2021/05/12 00:32:41;;;;;;;7.92;2.00;;;;;;;13.63;53.51;98934.39;1707825;83;21063;-67
2021/05/12 00:35:09;;;;;;;3.17;1.67;;;;;;;13.58;53.75;98934.18;1675193;84;21018;-65
2021/05/12 00:37:35;;;;;;;3.90;1.90;;;;;;;13.55;53.91;98943.42;1668621;83;21096;-66
2021/05/12 00:40:03;;;;;;;4.05;2.47;;;;;;;13.53;54.17;98934.77;1689844;83;21036;-67
2021/05/12 00:42:30;;;;;;;5.78;2.50;;;;;;;13.51;54.28;98935.48;1705114;83;21154;-68
2021/05/12 00:44:58;;;;;;;3.10;2.08;;;;;;;13.49;54.38;98936.20;1654187;83;21590;-67
2021/05/12 00:47:29;;;;;;;2.60;1.95;;;;;;;13.49;54.48;98932.20;1683229;83;20968;-66
2021/05/12 00:49:55;;;;;;;4.67;2.27;;;;;;;13.48;54.54;98937.73;1699614;83;21565;-66
2021/05/12 00:52:23;;;;;;;6.17;2.80;;;;;;;13.47;54.54;98938.27;1670517;83;20961;-67
2021/05/12 00:54:49;;;;;;;2.62;2.42;;;;;;;13.47;54.65;98934.26;1681112;83;21775;-66
2021/05/12 00:57:15;;;;;;;5.50;2.55;;;;;;;13.44;54.81;98933.31;1683224;84;21000;-66
2021/05/12 00:59:44;;;;;;;3.72;2.55;;;;;;;13.43;54.92;98930.83;1703252;82;20974;-66
2021/05/12 01:02:10;;;;;;;3.65;2.83;;;;;;;13.41;54.83;98923.03;1723513;82;20952;-66
2021/05/12 01:04:37;;;;;;;4.25;2.47;;;;;;;13.41;55.11;98927.03;1706048;84;21023;-67
2021/05/12 01:07:05;;;;;;;4.22;3.00;;;;;;;13.37;55.27;98921.80;1683252;83;21432;-66
2021/05/12 01:09:31;;;;;;;4.00;2.45;;;;;;;13.34;55.55;98925.38;1664159;84;20918;-67
2021/05/12 01:11:57;;;;;;;4.80;2.90;;;;;;;13.23;56.01;98922.77;1700524;82;20957;-66
2021/05/12 01:14:25;;;;;;;4.25;2.42;;;;;;;13.14;56.35;98916.48;1680796;83;21554;-66
2021/05/12 01:16:51;;;;;;;3.10;2.47;;;;;;;13.10;56.50;98913.88;1703281;82;20933;-66
2021/05/12 01:19:17;;;;;;;4.30;2.92;;;;;;;13.08;56.81;98925.28;1725980;82;22937;-66
2021/05/12 01:21:43;;;;;;;13.68;3.05;;;;;;;13.02;57.10;98926.86;1737620;82;21013;-67
2021/05/12 01:24:10;;;;;;;2.77;2.58;;;;;;;12.96;57.32;98921.80;1660019;84;20977;-67
2021/05/12 01:26:36;;;;;;;3.12;2.83;;;;;;;12.96;57.57;98915.63;1703312;82;21023;-67
2021/05/12 01:29:03;;;;;;;5.58;3.40;;;;;;;12.95;57.74;98919.34;1746802;82;21028;-66
2021/05/12 01:31:36;;;;;;;4.50;2.75;;;;;;;12.95;57.70;98919.34;1740568;82;21190;-67
2021/05/12 01:34:06;;;;;;;3.02;2.72;;;;;;;12.97;57.72;98912.78;1733151;82;21004;-67
2021/05/12 01:36:35;;;;;;;4.28;2.72;;;;;;;12.99;57.72;98909.90;1689602;83;20993;-66
2021/05/12 01:39:02;;;;;;;5.37;2.60;;;;;;;12.99;57.80;98904.56;1731381;82;21001;-68
2021/05/12 01:41:28;;;;;;;6.37;2.50;;;;;;;13.00;57.71;98904.37;1714393;82;20898;-67
2021/05/12 01:43:55;;;;;;;5.67;2.77;;;;;;;12.99;57.93;98915.24;1748258;82;21149;-66
2021/05/12 01:46:21;;;;;;;5.15;2.55;;;;;;;12.95;58.09;98910.83;1688619;83;21024;-66
2021/05/12 01:48:47;;;;;;;4.92;2.98;;;;;;;12.89;58.26;98905.45;1657410;85;20942;-67
2021/05/12 01:51:14;;;;;;;4.08;2.37;;;;;;;12.83;58.52;98910.23;1679879;83;21025;-67
2021/05/12 01:53:41;;;;;;;4.80;2.98;;;;;;;12.79;58.78;98908.49;1701250;84;20990;-69
2021/05/12 01:56:09;;;;;;;4.08;2.40;;;;;;;12.76;58.66;98902.21;1657897;83;21833;-67
2021/05/12 01:58:35;;;;;;;5.25;2.40;;;;;;;12.77;58.71;98904.37;1658762;85;21028;-67
2021/05/12 02:01:01;;;;;;;3.30;2.62;;;;;;;12.75;58.90;98911.73;1669436;85;20923;-67
2021/05/12 02:03:27;;;;;;;4.22;2.62;;;;;;;12.75;58.92;98902.39;1685085;85;20998;-67
2021/05/12 02:05:54;;;;;;;3.85;2.67;;;;;;;12.79;59.08;98906.33;1686718;83;21016;-67
2021/05/12 02:08:23;;;;;;;2.65;2.37;;;;;;;12.83;58.98;98903.05;1663558;83;22062;-67
2021/05/12 02:10:52;;;;;;;6.00;2.87;;;;;;;12.87;58.97;98902.98;1689053;84;20949;-68
2021/05/12 02:13:19;;;;;;;2.95;2.20;;;;;;;12.92;58.92;98907.22;1690010;83;21523;-68
2021/05/12 02:15:45;;;;;;;2.77;2.17;;;;;;;12.94;58.89;98905.16;1668942;85;20933;-66
2021/05/12 02:18:12;;;;;;;3.00;2.30;;;;;;;12.94;59.03;98899.00;1666436;83;20897;-66
2021/05/12 02:20:38;;;;;;;4.90;2.35;;;;;;;12.93;59.18;98904.05;1668107;85;21135;-67
2021/05/12 02:23:10;;;;;;;4.42;2.42;;;;;;;12.91;59.34;98910.90;1690693;84;21052;-67
2021/05/12 02:25:37;;;;;;;4.87;2.70;;;;;;;12.90;59.66;98923.12;1686498;83;21028;-67
2021/05/12 02:28:05;;;;;;;3.60;2.37;;;;;;;12.84;59.80;98923.91;1656568;85;21045;-66
2021/05/12 02:30:31;;;;;;;3.10;2.50;;;;;;;12.74;60.29;98914.94;1659468;85;21029;-66
2021/05/12 02:32:57;;;;;;;3.77;2.58;;;;;;;12.66;60.57;98916.94;1681962;83;20923;-68
2021/05/12 02:35:23;;;;;;;3.47;2.33;;;;;;;12.57;61.22;98918.92;1700802;84;21054;-68
2021/05/12 02:37:50;;;;;;;3.83;2.50;;;;;;;12.50;61.47;98914.06;1689006;83;21625;-67
2021/05/12 02:40:18;;;;;;;3.40;2.40;;;;;;;12.46;61.87;98912.00;1657084;85;21005;-66
2021/05/12 02:42:44;;;;;;;3.98;2.58;;;;;;;12.43;61.75;98909.21;1680891;85;20986;-67
2021/05/12 02:45:11;;;;;;;5.97;2.60;;;;;;;12.42;62.20;98910.72;1702630;83;21152;-68
2021/05/12 02:47:37;;;;;;;4.92;2.58;;;;;;;12.41;62.39;98905.09;1657227;85;21021;-67
2021/05/12 02:50:07;;;;;;;4.08;2.50;;;;;;;12.43;62.57;98909.72;1694449;83;20981;-67
2021/05/12 02:52:33;;;;;;;3.17;2.85;;;;;;;12.48;62.78;98907.28;1650652;85;21041;-67
2021/05/12 02:54:59;;;;;;;4.17;2.50;;;;;;;12.56;63.39;98903.13;1688023;84;20986;-67
2021/05/12 02:57:26;;;;;;;2.40;2.02;;;;;;;12.66;63.33;98905.75;1694018;84;21151;-66
2021/05/12 02:59:52;;;;;;;2.98;2.00;;;;;;;12.78;63.07;98896.66;1691314;84;21509;-67
2021/05/12 03:02:19;;;;;;;4.62;2.55;;;;;;;12.93;63.10;98891.49;1694221;84;20981;-69
2021/05/12 03:04:45;;;;;;;5.62;2.75;;;;;;;13.10;62.82;98887.17;1686237;84;21044;-67
2021/05/12 03:07:11;;;;;;;4.08;2.47;;;;;;;13.25;62.44;98882.48;1685957;84;21411;-67
2021/05/12 03:09:37;;;;;;;6.22;2.52;;;;;;;13.41;62.16;98879.45;1694397;84;21771;-68
2021/05/12 03:12:05;;;;;;;6.58;2.65;;;;;;;13.60;61.68;98876.00;1687615;84;21604;-67
2021/05/12 03:14:31;;;;;;;2.35;2.15;;;;;;;13.83;61.03;98878.27;1688743;84;20933;-67
2021/05/12 03:16:57;;;;;;;4.65;3.12;;;;;;;14.06;60.31;98876.00;1695316;84;21021;-67
2021/05/12 03:19:26;;;;;;;3.77;2.52;;;;;;;14.28;59.61;98884.62;1656556;85;21064;-68
2021/05/12 03:21:55;;;;;;;3.92;2.50;;;;;;;14.41;59.24;98880.11;1675222;84;22475;-68
2021/05/12 03:24:21;;;;;;;3.27;2.40;;;;;;;14.53;59.08;98887.80;1687842;84;20985;-66
2021/05/12 03:26:47;;;;;;;3.77;2.08;;;;;;;14.69;58.81;98879.83;1695363;84;21016;-67
2021/05/12 03:29:13;;;;;;;4.08;2.95;;;;;;;14.89;58.44;98888.61;1674742;84;20985;-66
2021/05/12 03:31:40;;;;;;;2.45;2.25;;;;;;;15.06;58.18;98897.83;1652333;85;21108;-68
2021/05/12 03:34:06;;;;;;;4.15;2.80;;;;;;;15.13;58.05;98895.93;1671581;84;21167;-67
2021/05/12 03:36:32;;;;;;;3.80;2.83;;;;;;;15.20;57.96;98896.71;1658999;85;21012;-69
2021/05/12 03:38:59;;;;;;;4.47;2.65;;;;;;;15.38;57.69;98886.64;1657541;85;20977;-66
2021/05/12 03:41:25;;;;;;;4.40;2.80;;;;;;;15.74;57.05;98882.83;1675075;83;21112;-66
2021/05/12 03:43:52;;;;;;;5.17;3.00;;;;;;;16.16;55.67;98885.78;1715021;83;21093;-68
2021/05/12 03:46:18;;;;;;;4.28;3.02;;;;;;;16.46;55.14;98874.64;1686968;83;21717;-68
2021/05/12 03:48:45;;;;;;;5.03;2.80;;;;;;;16.73;54.49;98865.30;1714874;83;21086;-67
2021/05/12 03:51:11;;;;;;;5.65;2.95;;;;;;;17.05;54.02;98868.64;1706851;83;21021;-68
2021/05/12 03:53:37;;;;;;;4.50;2.60;;;;;;;17.35;53.38;98859.22;1715387;83;21051;-68
2021/05/12 03:56:04;;;;;;;3.55;2.90;;;;;;;17.75;52.59;98858.42;1704652;83;20998;-67
2021/05/12 03:58:30;;;;;;;7.17;2.90;;;;;;;18.13;51.66;98843.21;1706200;83;21169;-67
2021/05/12 04:00:58;;;;;;;4.95;3.02;;;;;;;18.46;51.02;98846.11;1686783;83;21068;-67
2021/05/12 04:03:27;;;;;;;4.78;3.00;;;;;;;18.74;50.57;98845.94;1680846;84;21584;-67
2021/05/12 04:05:52;;;;;;;3.47;2.70;;;;;;;18.92;50.33;98842.56;1679575;84;21121;-67
2021/05/12 04:08:18;;;;;;;9.60;3.05;;;;;;;19.07;50.39;98844.20;1686589;83;21012;-67
2021/05/12 04:10:45;;;;;;;4.42;3.42;;;;;;;19.33;49.80;98849.55;1659341;85;21183;-67
2021/05/12 04:13:11;;;;;;;8.78;4.42;;;;;;;19.60;49.29;98849.28;1678932;85;21018;-65
2021/05/12 04:15:37;;;;;;;4.62;3.40;;;;;;;19.91;48.72;98861.40;1715343;83;21600;-66
2021/05/12 04:18:04;;;;;;;7.15;3.40;;;;;;;19.92;48.43;98864.92;1695675;83;21096;-68
2021/05/12 04:20:30;;;;;;;7.35;3.58;;;;;;;19.85;48.36;98857.50;1657994;85;21503;-63
2021/05/12 04:22:56;;;;;;;5.05;3.33;;;;;;;19.71;48.50;98869.12;1671964;84;21058;-66
2021/05/12 04:25:23;;;;;;;7.85;4.05;;;;;;;19.58;49.07;98877.53;1678832;84;20972;-67
2021/05/12 04:27:49;;;;;;;7.78;3.67;;;;;;;19.53;49.45;98895.80;1661948;85;20937;-67
2021/05/12 04:30:18;;;;;;;7.30;3.70;;;;;;;19.33;49.71;98919.66;1698694;83;21028;-67
2021/05/12 04:32:45;;;;;;;3.85;3.40;;;;;;;18.93;50.62;98900.77;1655399;84;21005;-67
2021/05/12 04:35:13;;;;;;;4.20;3.30;;;;;;;18.52;51.82;98912.25;1664819;84;21148;-65
2021/05/12 04:37:40;;;;;;;10.90;4.40;;;;;;;18.18;53.13;98916.53;1661652;85;20970;-65
2021/05/12 04:40:09;;;;;;;7.35;3.80;;;;;;;17.91;54.26;98915.33;1676140;84;20972;-62
2021/05/12 04:42:35;;;;;;;8.93;3.67;;;;;;;17.74;55.03;98904.40;1685838;84;21117;-60
2021/05/12 04:45:03;;;;;;;5.40;3.40;;;;;;;17.81;55.29;98911.83;1676788;85;21025;-60
2021/05/12 04:47:29;;;;;;;5.97;4.25;;;;;;;17.97;55.42;98907.14;1707823;83;21078;-65
2021/05/12 04:49:55;;;;;;;7.95;4.05;;;;;;;18.05;55.23;98900.08;1702170;83;21605;-59
2021/05/12 04:52:22;;;;;;;4.85;4.33;;;;;;;18.29;55.11;98901.75;1673105;85;21562;-55
2021/05/12 04:54:48;;;;;;;6.37;3.67;;;;;;;18.42;54.59;98904.21;1676214;84;21497;-60
2021/05/12 04:57:14;;;;;;;6.58;3.50;;;;;;;18.46;54.50;98888.38;1693050;83;20973;-58
2021/05/12 04:59:40;;;;;;;5.10;4.17;;;;;;;18.63;54.11;98900.65;1678421;83;21598;-58
2021/05/12 05:02:09;;;;;;;7.15;3.83;;;;;;;18.67;53.88;98895.07;1704385;83;20973;-59
2021/05/12 05:04:35;;;;;;;4.60;3.83;;;;;;;18.78;53.91;98895.59;1699535;83;20934;-67
2021/05/12 05:07:02;;;;;;;7.40;3.72;;;;;;;18.88;53.70;98907.93;1706082;83;21136;-54
2021/05/12 05:09:29;;;;;;;5.12;3.87;;;;;;;18.98;53.38;98910.87;1704677;83;21005;-55
2021/05/12 05:11:55;;;;;;;5.30;3.83;;;;;;;19.07;53.40;98899.47;1704243;83;21139;-55
2021/05/12 05:14:21;;;;;;;13.20;4.12;;;;;;;19.19;53.13;98895.37;1703996;83;20886;-61
2021/05/12 05:16:47;;;;;;;5.72;4.20;;;;;;;19.27;52.98;98904.95;1698921;83;20980;-59
2021/05/12 05:19:14;;;;;;;6.08;3.90;;;;;;;19.34;53.05;98901.09;1698741;83;21084;-58
2021/05/12 05:21:41;;;;;;;7.58;4.20;;;;;;;19.36;52.54;98903.00;1701814;83;21518;-56
2021/05/12 05:24:11;;;;;;;7.70;3.80;;;;;;;19.27;53.23;98900.91;1706011;83;21286;-59
2021/05/12 05:26:37;;;;;;;6.40;3.45;;;;;;;19.24;52.79;98889.28;1703856;83;21688;-60
2021/05/12 05:29:03;;;;;;;6.47;3.90;;;;;;;19.19;53.03;98891.33;1675662;85;21585;-57
2021/05/12 05:31:31;;;;;;;5.25;3.83;;;;;;;19.29;52.67;98891.55;1678344;84;21569;-56
2021/05/12 05:34:16;;;;;;;;;;;;;;;19.42;52.45;98895.31;1672925;84;21020;-59
2021/05/12 05:37:01;;;;;;;4.15;3.42;;;;;;;19.54;52.58;98889.36;1672524;84;21260;-57
2021/05/12 05:39:45;;;;;;;4.25;3.60;;;;;;;19.74;51.51;98898.33;1653181;85;21068;-55
2021/05/12 05:42:30;;;;;;;4.67;3.87;;;;;;;19.62;52.00;98893.02;1672482;84;20897;-57
2021/05/12 05:45:15;;;;;;;6.08;4.10;;;;;;;19.70;51.80;98904.77;1664518;85;21002;-57
2021/05/12 05:48:00;;;;;;;5.62;3.83;;;;;;;19.48;52.00;98913.77;1648408;85;21097;-59
2021/05/12 05:50:44;;;;;;;7.03;4.00;;;;;;;19.63;52.67;98896.53;1707912;82;22266;-57
2021/05/12 05:53:29;;;;;;;6.70;4.60;;;;;;;19.63;52.67;98896.53;1689150;84;21547;-57
2021/05/12 05:56:14;;;;;;;4.95;3.75;;;;;;;19.85;51.84;98893.41;1709033;83;21013;-56
2021/05/12 05:58:59;;;;;;;7.17;3.77;;;;;;;19.94;51.54;98900.05;1694286;83;21068;-56
2021/05/12 06:01:43;;;;;;;7.33;3.72;;;;;;;19.87;51.69;98893.15;1723579;82;21104;-58
2021/05/12 06:04:09;;;;;;;6.30;3.83;;;;;;;19.71;50.91;98898.29;1743278;82;21154;-56
2021/05/12 06:06:55;;;;;;;7.80;4.00;;;;;;;19.43;51.67;98900.19;1697868;82;21000;-57
2021/05/12 06:09:40;;;;;;;6.10;3.65;;;;;;;19.09;52.56;98897.86;1742622;82;21050;-58
2021/05/12 06:12:26;;;;;;;;;;;;;;;19.00;53.22;98902.01;1727964;82;20984;-56
2021/05/12 06:15:19;;;;;;;6.33;3.67;;;;;;;19.07;53.18;98883.29;1738876;81;20160;-57
2021/05/12 06:18:00;;;;;;;6.70;3.60;;;;;;;19.39;53.36;98892.30;1744982;82;20915;-58
2021/05/12 06:20:44;;;;;;;4.12;3.65;;;;;;;19.64;51.70;98884.66;1706684;84;21048;-52
2021/05/12 06:23:24;;;;;;;8.88;3.35;;;;;;;19.80;51.54;98891.15;1701006;82;21048;-54
2021/05/12 06:26:19;;;;;;;3.42;3.12;;;;;;;19.85;51.12;98885.84;1745193;81;21984;-53
2021/05/12 06:29:04;;;;;;;7.30;4.05;;;;;;;19.78;51.10;98895.98;1711334;82;21021;-56
2021/05/12 06:31:48;;;;;;;6.37;3.90;;;;;;;19.79;51.18;98894.92;1721794;82;21324;-56
2021/05/12 06:34:35;;;;;;;4.20;3.27;;;;;;;19.68;51.80;98894.72;1741982;82;21052;-59
2021/05/12 06:37:20;;;;;;;6.08;4.00;;;;;;;19.73;51.82;98894.54;1743587;82;20915;-59
2021/05/12 06:40:07;;;;;;;4.67;3.80;;;;;;;19.89;51.06;98896.45;1740124;82;21020;-62
2021/05/12 06:42:33;;;;;;;5.62;3.62;;;;;;;19.84;51.18;98902.55;1721252;82;21067;-59
2021/05/12 06:44:59;;;;;;;4.15;3.75;;;;;;;19.82;52.08;98898.46;1731315;82;21144;-56
2021/05/12 06:47:26;;;;;;;12.00;3.72;;;;;;;20.05;51.68;98904.53;1722914;82;21644;-57
2021/05/12 06:49:52;;;;;;;6.72;3.40;;;;;;;20.40;51.31;98887.30;1692463;82;21499;-54
2021/05/12 06:52:18;;;;;;;5.10;3.50;;;;;;;20.72;49.57;98893.72;1720820;82;21579;-55
2021/05/12 06:54:44;;;;;;;5.65;3.77;;;;;;;20.88;49.62;98885.54;1719741;82;20964;-60
2021/05/12 06:57:10;;;;;;;7.08;3.60;;;;;;;21.10;48.79;98884.77;1727535;82;21857;-59
2021/05/12 06:59:37;;;;;;;9.33;4.58;;;;;;;21.03;48.65;98884.11;1702491;82;21310;-68
2021/05/12 07:02:03;;;;;;;5.87;3.52;;;;;;;20.85;48.83;98885.25;1729611;82;20970;-61
2021/05/12 07:04:29;;;;;;;6.70;4.03;;;;;;;20.86;49.24;98878.75;1732938;82;21116;-58
2021/05/12 07:06:55;;;;;;;7.60;3.62;;;;;;;20.85;48.94;98895.53;1690411;83;21063;-63
2021/05/12 07:09:21;;;;;;;4.87;3.42;;;;;;;20.68;49.18;98897.44;1722324;82;21046;-60
2021/05/12 07:11:48;;;;;;;6.83;4.35;;;;;;;20.70;50.17;98879.08;1722185;82;21510;-61
2021/05/12 07:14:14;;;;;;;7.85;4.05;;;;;;;20.82;48.70;98914.95;1702123;82;21039;-59
2021/05/12 07:16:40;;;;;;;5.33;3.70;;;;;;;20.70;48.97;98902.61;1730687;82;21076;-61
2021/05/12 07:19:07;;;;;;;7.37;3.67;;;;;;;20.64;48.37;98890.91;1684640;83;21029;-62
2021/05/12 07:21:33;;;;;;;4.95;4.10;;;;;;;20.80;48.57;98887.36;1679334;83;21009;-61
2021/05/12 07:24:00;;;;;;;7.00;3.80;;;;;;;21.05;46.89;98902.25;1668241;84;20994;-62
2021/05/12 07:26:27;;;;;;;4.37;3.70;;;;;;;20.89;47.09;98885.02;1673729;84;21097;-61
2021/05/12 07:28:53;;;;;;;9.50;4.03;;;;;;;20.67;47.53;98910.69;1651396;84;21046;-61
2021/05/12 07:31:20;;;;;;;7.47;3.52;;;;;;;20.43;47.93;98893.56;1674015;84;21026;-61
2021/05/12 07:33:47;;;;;;;8.03;3.65;;;;;;;20.25;48.45;98901.39;1673586;84;21168;-61
2021/05/12 07:36:13;;;;;;;8.08;3.52;;;;;;;20.18;48.32;98897.98;1674394;84;21087;-52
2021/05/12 07:38:40;;;;;;;5.20;3.58;;;;;;;20.18;48.32;98897.98;1658868;83;20990;-56
2021/05/12 07:41:06;;;;;;;5.47;3.70;;;;;;;20.27;47.86;98893.33;1682973;83;20986;-53
2021/05/12 07:43:32;;;;;;;7.90;3.65;;;;;;;20.44;47.79;98898.70;1665879;84;21090;-60
2021/05/12 07:46:00;;;;;;;7.17;3.15;;;;;;;20.58;47.32;98884.31;1657404;84;21147;-55
2021/05/12 07:48:26;;;;;;;10.55;3.37;;;;;;;20.53;46.99;98906.69;1678188;84;21665;-63
2021/05/12 07:50:52;;;;;;;7.85;3.30;;;;;;;20.23;47.31;98900.80;1673240;84;21534;-49
2021/05/12 07:53:19;;;;;;;6.20;3.17;;;;;;;20.17;48.03;98889.63;1667069;84;21573;-52
2021/05/12 07:55:45;;;;;;;5.30;3.42;;;;;;;20.28;47.39;98883.36;1683175;84;21621;-53
2021/05/12 07:58:11;;;;;;;8.90;3.15;;;;;;;20.37;46.84;98871.58;1657327;84;21233;-54
2021/05/12 08:00:40;;;;;;;4.30;2.80;;;;;;;20.55;46.03;98874.00;1688528;84;21717;-52
2021/05/12 08:03:05;;;;;;;3.85;2.77;;;;;;;20.72;46.28;98880.20;1682783;84;20963;-52
2021/05/12 08:05:32;;;;;;;6.65;3.02;;;;;;;20.77;45.48;98882.97;1689693;84;20976;-61
2021/05/12 08:07:59;;;;;;;3.50;3.20;;;;;;;20.42;45.24;98902.19;1689430;84;21551;-57
2021/05/12 08:10:25;;;;;;;4.45;2.27;;;;;;;19.99;45.98;98887.16;1690798;84;21868;-58
2021/05/12 08:12:51;;;;;;;5.87;2.35;;;;;;;19.78;46.92;98890.58;1690844;84;20970;-61
2021/05/12 08:15:17;;;;;;;6.45;2.45;;;;;;;19.83;46.13;98903.63;1684980;84;20985;-59
2021/05/12 08:17:43;;;;;;;4.17;2.10;;;;;;;19.86;46.22;98880.73;1688383;84;21050;-57
2021/05/12 08:20:11;;;;;;;4.40;2.10;;;;;;;19.96;45.73;98895.22;1687122;84;21108;-57
2021/05/12 08:22:37;;;;;;;2.92;2.00;;;;;;;19.98;44.45;98887.69;1689480;84;22015;-61
2021/05/12 08:25:05;;;;;;;4.65;1.80;;;;;;;19.84;44.85;98883.66;1690400;84;21571;-61
2021/05/12 08:27:31;;;;;;;1.85;1.70;;;;;;;19.94;43.75;98901.93;1690503;84;21104;-59
2021/05/12 08:30:00;;;;;;;2.27;2.05;;;;;;;19.94;43.39;98888.44;1690755;84;21005;-57
2021/05/12 08:32:25;;;;;;;2.98;1.60;;;;;;;20.10;42.11;98891.13;1661548;84;21633;-57
2021/05/12 08:34:51;;;;;;;4.25;1.60;;;;;;;20.09;41.66;98914.33;1690214;84;21127;-58
2021/05/12 08:37:17;;;;;;;1.62;1.50;;;;;;;20.03;42.27;98881.55;1657884;84;20955;-58
2021/05/12 08:39:43;;;;;;;2.05;1.40;;;;;;;20.03;42.64;98891.82;1687514;84;21050;-57
2021/05/12 08:42:10;;;;;;;2.45;1.62;;;;;;;20.02;42.83;98897.48;1654840;84;21062;-60
2021/05/12 08:44:36;;;;;;;3.47;1.80;;;;;;;19.92;43.03;98887.31;1662979;84;21052;-55
2021/05/12 08:47:02;;;;;;;4.45;1.65;;;;;;;19.94;42.84;98876.29;1686327;84;21186;-63
2021/05/12 08:49:29;;;;;;;2.22;1.55;;;;;;;20.14;42.88;98861.75;1661667;84;20929;-59
2021/05/12 08:51:55;;;;;;;5.28;2.20;;;;;;;20.28;42.32;98870.64;1639493;85;21048;-56
2021/05/12 08:54:22;;;;;;;5.92;1.60;;;;;;;20.26;41.17;98863.33;1688684;84;21028;-56
2021/05/12 08:56:48;;;;;;;5.35;1.70;;;;;;;20.38;41.15;98860.55;1684734;85;21593;-58
2021/05/12 08:59:15;;;;;;;9.93;1.62;;;;;;;20.48;41.69;98893.63;1689524;84;21829;-55
2021/05/12 09:01:42;;;;;;;5.95;1.37;;;;;;;20.41;41.20;98868.16;1654524;85;21032;-59
2021/05/12 09:04:08;;;;;;;4.00;2.00;;;;;;;20.46;40.51;98853.37;1634840;86;21016;-57
2021/05/12 09:06:34;;;;;;;1.87;1.17;;;;;;;20.45;40.12;98876.03;1665464;86;21123;-57
2021/05/12 09:09:01;;;;;;;2.77;1.10;;;;;;;20.28;40.68;98887.41;1636845;87;21036;-58
2021/05/12 09:11:31;;;;;;;2.67;1.05;;;;;;;19.95;38.79;98870.63;1608236;87;21125;-57
2021/05/12 09:13:57;;;;;;;2.83;0.93;;;;;;;19.95;38.79;98870.63;1657337;85;21100;-58
2021/05/12 09:16:28;;;;;;;2.98;1.27;;;;;;;20.02;39.73;98856.98;1689457;85;20969;-58
2021/05/12 09:19:13;;;;;;;2.50;1.00;;;;;;;20.29;38.33;98872.81;1662294;86;21020;-58
2021/05/12 09:21:58;;;;;;;3.80;1.10;;;;;;;20.24;37.81;98861.94;1665429;85;21029;-57
2021/05/12 09:24:35;;;;;;;5.35;0.90;;;;;;;20.18;37.69;98866.41;1636496;86;21834;-56
2021/05/12 09:27:04;;;;;;;3.37;0.60;;;;;;;19.92;36.53;98863.02;1666378;85;21079;-56
2021/05/12 09:29:37;;;;;;;3.72;0.60;;;;;;;19.75;37.67;98881.61;1634604;87;20985;-60
2021/05/12 09:32:08;;;;;;;2.52;0.70;;;;;;;19.61;35.60;98877.88;1664178;85;21084;-56
2021/05/12 09:35:02;;;;;;;6.50;0.55;;;;;;;19.58;33.82;98868.09;1618875;86;21004;-56
2021/05/12 09:37:37;;;;;;;3.00;0.80;;;;;;;19.59;35.07;98850.84;1636582;87;21712;-57
2021/05/12 09:40:10;;;;;;;3.65;0.60;;;;;;;19.75;34.85;98846.01;1668125;85;21028;-59
2021/05/12 09:42:38;;;;;;;3.35;0.72;;;;;;;19.86;33.81;98862.66;1681603;85;20977;-58
2021/05/12 09:45:15;;;;;;;2.25;0.70;;;;;;;19.93;34.73;98866.54;1685993;84;21586;-60
2021/05/12 09:47:50;;;;;;;3.87;0.70;;;;;;;19.97;33.58;98844.76;1655388;85;21091;-58
2021/05/12 09:50:32;;;;;;;0.80;0.70;;;;;;;19.98;31.80;98866.09;1676309;85;21113;-60
2021/05/12 09:53:12;;;;;;;1.90;0.55;;;;;;;19.78;32.61;98853.62;1688828;84;20997;-57
2021/05/12 09:55:45;;;;;;;1.12;0.90;;;;;;;19.73;33.41;98850.84;1639425;85;21054;-59
2021/05/12 09:58:17;;;;;;;0.82;0.60;;;;;;;19.79;33.07;98886.27;1661109;85;21110;-59
2021/05/12 10:00:45;;;;;;;0.93;0.50;;;;;;;19.66;31.64;98858.25;1660895;85;21077;-61
2021/05/12 10:03:13;;;;;;;2.08;0.85;;;;;;;19.51;32.14;98850.72;1657655;85;23652;-64
2021/05/12 10:05:55;;;;;;;6.50;1.22;;;;;;;19.56;32.70;98858.90;1688444;84;21090;-66
2021/05/12 10:08:24;;;;;;;1.10;0.57;;;;;;;19.57;32.98;98841.66;1689751;84;20917;-63
2021/05/12 10:11:00;;;;;;;1.10;0.45;;;;;;;19.74;33.17;98845.70;1688637;84;21002;-65
2021/05/12 10:13:26;;;;;;;0.65;0.55;;;;;;;19.99;31.65;98843.97;1632691;86;21111;-64
2021/05/12 10:15:52;;;;;;;2.05;0.70;;;;;;;20.04;31.16;98834.60;1665082;85;21147;-69
2021/05/12 10:18:18;;;;;;;2.60;0.70;;;;;;;20.08;32.09;98838.43;1636467;86;21004;-67
2021/05/12 10:20:45;;;;;;;2.37;0.80;;;;;;;20.12;32.05;98832.84;1649562;86;21008;-64
2021/05/12 10:23:11;;;;;;;2.37;0.72;;;;;;;20.06;29.73;98835.98;1633825;87;21048;-61
2021/05/12 10:25:37;;;;;;;0.55;0.55;;;;;;;19.88;31.18;98840.81;1630802;86;21121;-64
2021/05/12 10:28:04;;;;;;;2.70;0.55;;;;;;;19.79;31.38;98831.50;1632846;86;22455;-59
2021/05/12 10:30:30;;;;;;;4.92;0.55;;;;;;;19.75;31.30;98833.04;1659035;85;21000;-69
2021/05/12 10:32:57;;;;;;;2.67;0.60;;;;;;;19.59;32.79;98843.58;1633592;87;20945;-60
2021/05/12 10:35:43;;;;;;;1.35;0.50;;;;;;;19.52;33.24;98834.83;1635293;87;21060;-65
2021/05/12 10:38:07;;;;;;;2.45;0.70;;;;;;;19.52;33.91;98825.39;1632284;87;21111;-62
2021/05/12 10:40:40;;;;;;;2.58;0.47;;;;;;;19.79;34.17;98821.50;1663657;85;21741;-59
2021/05/12 10:43:26;;;;;;;4.70;0.60;;;;;;;20.03;33.00;98822.16;1663009;85;20976;-59
2021/05/12 10:46:04;;;;;;;0.60;0.60;;;;;;;20.13;33.82;98836.63;1642888;85;21135;-57
2021/05/12 10:48:48;;;;;;;0.50;0.50;;;;;;;20.01;32.44;98829.16;1738063;82;20998;-60
2021/05/12 10:51:31;;;;;;;0.90;0.50;;;;;;;19.81;32.84;98828.02;1717580;81;21108;-59
2021/05/12 10:54:03;;;;;;;3.20;0.60;;;;;;;19.63;33.53;98833.92;1742980;82;21651;-56
2021/05/12 10:56:42;;;;;;;1.42;0.57;;;;;;;19.58;34.84;98824.40;1706728;84;21476;-59
2021/05/12 10:59:12;;;;;;;1.45;0.57;;;;;;;19.61;33.13;98827.96;1740407;82;21491;-56
2021/05/12 11:01:49;;;;;;;1.60;0.62;;;;;;;19.61;33.75;98821.22;1742799;82;21048;-57
2021/05/12 11:04:18;;;;;;;2.12;0.65;;;;;;;19.59;33.90;98816.60;1720855;82;21016;-58
2021/05/12 11:06:53;;;;;;;3.87;0.72;;;;;;;19.49;35.38;98809.69;1742467;82;21888;-56
2021/05/12 11:09:22;;;;;;;2.55;1.00;;;;;;;19.71;34.58;98804.37;1717224;82;20972;-57
2021/05/12 11:11:57;;;;;;;0.70;0.53;;;;;;;19.74;34.57;98813.33;1714231;82;21580;-57
2021/05/12 11:14:31;;;;;;;5.30;0.50;;;;;;;19.71;34.31;98820.56;1740077;82;21000;-58
2021/05/12 11:17:17;;;;;;;1.42;0.53;;;;;;;19.82;33.99;98821.02;1737943;82;21008;-58
2021/05/12 11:19:53;;;;;;;2.37;0.82;;;;;;;19.71;33.95;98818.69;1743333;82;27120;-57
2021/05/12 11:33:34;;;;;;;1.75;0.40;;;;;;;19.56;33.91;98826.53;1720072;82;21146;-57
2021/05/12 11:36:13;;;;;;;6.42;0.85;;;;;;;19.43;33.90;98799.04;1703830;82;20950;-59
2021/05/12 11:38:39;;;;;;;2.85;0.53;;;;;;;19.34;34.44;98825.58;1703344;82;21028;-59
2021/05/12 11:41:17;;;;;;;2.83;0.50;;;;;;;19.32;34.30;98806.09;1725200;82;20985;-57
2021/05/12 11:44:01;;;;;;;1.72;0.47;;;;;;;19.31;34.21;98812.56;1726385;82;21530;-60
2021/05/12 11:46:39;;;;;;;5.05;0.88;;;;;;;19.32;33.20;98785.88;1680346;83;21051;-63
2021/05/12 11:49:10;;;;;;;3.12;0.70;;;;;;;19.30;33.89;98819.02;1695205;83;21602;-59
2021/05/12 11:51:46;;;;;;;2.65;0.50;;;;;;;19.15;34.90;98811.17;1679460;84;20987;-67
2021/05/12 11:54:23;;;;;;;0.50;0.50;;;;;;;19.11;34.99;98790.61;1679849;83;20957;-66
2021/05/12 11:56:52;;;;;;;1.82;0.35;;;;;;;19.10;35.57;98783.08;1685911;83;20981;-63
2021/05/12 11:59:23;;;;;;;1.02;0.33;;;;;;;19.10;35.52;98824.03;1714695;83;21181;-59